createdAt,value
2018-08-31T00:01:16.168Z,15.30
2018-08-31T00:04:58.395Z,15.30
2018-08-31T00:10:57.582Z,15.30
2018-08-31T00:13:28.899Z,15.20
2018-08-31T00:18:47.145Z,15.20
2018-08-31T00:21:17.631Z,15.20
2018-08-31T00:24:03.391Z,15.20
2018-08-31T00:26:44.637Z,15.20
2018-08-31T00:29:52.436Z,15.10
2018-08-31T00:33:04.181Z,15.00
2018-08-31T00:35:51.596Z,14.90
2018-08-31T00:39:31.380Z,14.80
2018-08-31T00:42:15.515Z,14.80
2018-08-31T00:45:53.354Z,14.80
2018-08-31T00:48:23.976Z,14.70
2018-08-31T00:50:54.596Z,14.70
2018-08-31T00:53:32.138Z,14.70
2018-08-31T00:56:07.777Z,14.60
2018-08-31T00:58:41.280Z,14.60
2018-08-31T01:27:58.527Z,14.10
2018-08-31T01:59:16.129Z,13.70
2018-08-31T02:05:55.310Z,13.60
2018-08-31T02:18:11.414Z,13.50
2018-08-31T02:29:04.111Z,13.30
2018-08-31T02:37:17.932Z,13.20
2018-08-31T03:03:36.709Z,13.20
2018-08-31T03:06:15.756Z,13.00
2018-08-31T03:08:56.403Z,12.90
2018-08-31T03:14:18.372Z,12.90
2018-08-31T03:16:49.149Z,12.90
2018-08-31T03:19:26.779Z,12.90
2018-08-31T03:21:59.524Z,12.80
2018-08-31T03:24:36.142Z,12.80
2018-08-31T03:53:33.260Z,12.70
2018-08-31T03:56:13.209Z,12.70
2018-08-31T03:58:44.371Z,12.60
2018-08-31T04:01:18.323Z,12.60
2018-08-31T04:03:50.870Z,12.60
2018-08-31T04:06:27.731Z,12.70
2018-08-31T04:09:03.763Z,12.60
2018-08-31T04:11:38.604Z,12.60
2018-08-31T04:16:59.273Z,12.60
2018-08-31T04:22:27.578Z,12.60
2018-08-31T04:25:00.453Z,12.60
2018-08-31T04:27:39.978Z,12.60
2018-08-31T04:30:13.804Z,12.60
2018-08-31T04:32:55.374Z,12.60
2018-08-31T04:48:30.318Z,12.60
2018-08-31T04:54:35.867Z,12.60
2018-08-31T04:59:57.875Z,12.60
2018-08-31T05:02:34.371Z,12.60
2018-08-31T05:05:15.851Z,12.60
2018-08-31T05:08:08.485Z,12.70
2018-08-31T05:13:39.111Z,12.70
2018-08-31T05:27:28.810Z,12.90
2018-08-31T05:37:24.502Z,13.20
2018-08-31T05:40:05.756Z,13.30
2018-08-31T05:45:22.822Z,13.40
2018-08-31T05:48:03.738Z,13.50
2018-08-31T05:50:36.296Z,13.60
2018-08-31T05:53:15.102Z,13.60
2018-08-31T05:55:59.189Z,13.70
2018-08-31T05:58:38.637Z,13.70
2018-08-31T06:01:10.111Z,13.80
2018-08-31T06:06:34.165Z,13.80
2018-08-31T06:09:07.861Z,13.90
2018-08-31T06:11:37.803Z,14.00
2018-08-31T06:14:09.265Z,14.10
2018-08-31T06:19:21.537Z,14.20
2018-08-31T06:21:57.967Z,14.10
2018-08-31T06:38:10.354Z,14.10
2018-08-31T06:43:27.370Z,14.60
2018-08-31T06:48:29.321Z,14.80
2018-08-31T07:05:07.966Z,14.90
2018-08-31T07:07:38.881Z,14.80
2018-08-31T07:10:08.075Z,14.80
2018-08-31T07:12:40.413Z,14.90
2018-08-31T07:15:11.748Z,15.00
2018-08-31T07:17:41.104Z,14.80
2018-08-31T07:20:10.924Z,14.90
2018-08-31T07:22:41.079Z,15.10
2018-08-31T07:25:11.713Z,15.00
2018-08-31T07:27:41.450Z,15.00
2018-08-31T07:30:12.802Z,15.10
2018-08-31T07:32:44.061Z,15.10
2018-08-31T07:35:15.717Z,15.00
2018-08-31T07:37:48.490Z,15.10
2018-08-31T07:40:21.521Z,15.10
2018-08-31T07:42:52.474Z,15.20
2018-08-31T07:45:23.898Z,15.10
2018-08-31T07:47:57.118Z,15.10
2018-08-31T07:50:27.846Z,15.10
2018-08-31T07:52:57.886Z,15.10
2018-08-31T07:55:27.754Z,15.10
2018-08-31T07:57:57.835Z,15.10
2018-08-31T08:00:29.546Z,15.10
2018-08-31T08:02:58.870Z,15.20
2018-08-31T08:05:29.185Z,15.40
2018-08-31T08:08:00.261Z,15.80
2018-08-31T08:10:33.918Z,15.80
2018-08-31T08:13:06.938Z,15.80
2018-08-31T08:15:39.605Z,15.70
2018-08-31T08:26:26.233Z,16.30
2018-08-31T08:28:56.846Z,16.30
2018-08-31T08:31:26.203Z,16.30
2018-08-31T08:33:55.669Z,16.40
2018-08-31T08:36:25.814Z,16.30
2018-08-31T08:38:54.980Z,16.20
2018-08-31T08:45:00.982Z,16.00
2018-08-31T08:47:31.054Z,16.10
2018-08-31T08:50:02.874Z,16.40
2018-08-31T09:08:14.240Z,17.90
2018-08-31T09:10:44.151Z,18.40
2018-08-31T09:13:13.547Z,18.40
2018-08-31T09:15:44.627Z,18.50
2018-08-31T09:18:23.135Z,18.10
2018-08-31T09:20:54.558Z,17.80
2018-08-31T09:23:27.701Z,17.90
2018-08-31T09:26:06.493Z,18.10
2018-08-31T09:28:37.995Z,18.50
2018-08-31T09:31:13.329Z,19.10
2018-08-31T09:33:43.112Z,19.50
2018-08-31T09:36:17.079Z,19.90
2018-08-31T09:38:49.441Z,19.50
2018-08-31T09:41:22.149Z,19.50
2018-08-31T09:43:58.134Z,19.90
2018-08-31T09:46:27.439Z,20.00
2018-08-31T09:48:57.374Z,20.60
2018-08-31T09:51:27.222Z,20.40
2018-08-31T09:53:56.885Z,20.00
2018-08-31T09:56:27.722Z,20.30
2018-08-31T09:58:56.644Z,20.80
2018-08-31T10:01:31.672Z,20.90
2018-08-31T10:04:02.946Z,21.40
2018-08-31T10:06:34.617Z,21.00
2018-08-31T10:09:18.289Z,20.30
2018-08-31T10:11:48.294Z,20.00
2018-08-31T10:14:18.594Z,19.80
2018-08-31T10:16:48.007Z,19.90
2018-08-31T10:19:17.224Z,20.50
2018-08-31T10:21:46.850Z,20.90
2018-08-31T10:24:16.162Z,21.70
2018-08-31T10:26:58.487Z,21.70
2018-08-31T10:29:30.492Z,21.60
2018-08-31T10:31:59.846Z,21.30
2018-08-31T10:34:28.962Z,21.40
2018-08-31T10:36:58.490Z,21.40
2018-08-31T10:39:29.815Z,21.30
2018-08-31T10:41:59.816Z,21.10
2018-08-31T10:47:10.029Z,21.40
2018-08-31T10:49:39.804Z,21.40
2018-08-31T10:52:09.420Z,21.80
2018-08-31T10:54:39.171Z,21.20
2018-08-31T10:57:09.397Z,21.20
2018-08-31T10:59:39.941Z,22.30
2018-08-31T11:02:09.914Z,22.60
2018-08-31T11:04:40.292Z,23.70
2018-08-31T11:07:09.736Z,23.90
2018-08-31T11:09:38.991Z,23.20
2018-08-31T11:12:08.179Z,23.90
2018-08-31T11:14:37.651Z,24.20
2018-08-31T11:17:07.881Z,23.80
2018-08-31T11:19:41.184Z,23.10
2018-08-31T11:22:10.480Z,23.90
2018-08-31T11:24:40.370Z,23.80
2018-08-31T11:27:09.672Z,22.90
2018-08-31T11:29:39.614Z,21.90
2018-08-31T11:32:08.796Z,21.80
2018-08-31T11:34:39.244Z,22.80
2018-08-31T11:37:08.705Z,22.70
2018-08-31T11:39:39.045Z,22.70
2018-08-31T11:42:08.501Z,22.30
2018-08-31T11:44:37.599Z,21.60
2018-08-31T11:47:07.115Z,21.80
2018-08-31T11:49:36.445Z,22.40
2018-08-31T11:52:06.259Z,23.20
2018-08-31T11:54:35.289Z,23.60
2018-08-31T11:57:05.338Z,24.40
2018-08-31T11:59:34.727Z,25.30
2018-08-31T12:02:04.022Z,25.40
2018-08-31T12:04:33.180Z,25.20
2018-08-31T12:07:03.742Z,24.80
2018-08-31T12:09:32.837Z,24.20
2018-08-31T12:12:01.897Z,23.40
2018-08-31T12:14:32.991Z,22.50
2018-08-31T12:17:02.378Z,21.90
2018-08-31T12:19:32.127Z,21.90
2018-08-31T12:22:01.514Z,21.50
2018-08-31T12:24:30.840Z,21.20
2018-08-31T12:27:00.286Z,21.90
2018-08-31T12:29:29.602Z,22.00
2018-08-31T12:31:58.760Z,22.10
2018-08-31T12:34:28.238Z,21.60
2018-08-31T12:36:57.418Z,21.50
2018-08-31T12:39:27.341Z,21.30
2018-08-31T12:41:56.975Z,21.60
2018-08-31T12:44:26.185Z,22.10
2018-08-31T12:46:55.303Z,22.40
2018-08-31T12:49:24.394Z,23.00
2018-08-31T12:51:53.721Z,23.60
2018-08-31T12:54:28.406Z,23.60
2018-08-31T12:56:59.166Z,24.30
2018-08-31T12:59:28.361Z,24.10
2018-08-31T13:01:57.785Z,24.10
2018-08-31T13:04:27.143Z,23.80
2018-08-31T13:06:57.551Z,23.70
2018-08-31T13:09:26.456Z,23.60
2018-08-31T13:11:55.477Z,22.70
2018-08-31T13:14:24.743Z,22.30
2018-08-31T13:16:54.258Z,22.50
2018-08-31T13:19:27.623Z,22.30
2018-08-31T13:21:57.204Z,22.10
2018-08-31T13:27:17.298Z,22.10
2018-08-31T13:32:33.128Z,22.70
2018-08-31T13:54:21.113Z,22.30
2018-08-31T13:56:50.301Z,22.90
2018-08-31T13:59:19.701Z,22.80
2018-08-31T14:01:48.846Z,23.30
2018-08-31T14:04:18.455Z,23.40
2018-08-31T14:06:48.395Z,23.60
2018-08-31T14:09:17.891Z,24.30
2018-08-31T14:11:48.915Z,24.20
2018-08-31T14:14:18.547Z,24.50
2018-08-31T14:16:48.131Z,24.30
2018-08-31T14:19:17.339Z,24.40
2018-08-31T14:21:50.224Z,23.80
2018-08-31T14:24:20.326Z,23.60
2018-08-31T14:26:49.456Z,23.90
2018-08-31T14:29:18.532Z,23.90
2018-08-31T14:31:47.889Z,23.70
2018-08-31T14:34:17.038Z,23.60
2018-08-31T14:36:46.290Z,23.70
2018-08-31T14:39:15.840Z,23.60
2018-08-31T14:41:44.814Z,22.90
2018-08-31T14:44:18.280Z,22.50
2018-08-31T14:46:48.508Z,22.50
2018-08-31T14:49:19.139Z,22.30
2018-08-31T14:51:49.048Z,22.30
2018-08-31T14:54:18.110Z,22.50
2018-08-31T14:56:47.198Z,22.50
2018-08-31T14:59:17.967Z,22.80
2018-08-31T15:01:47.189Z,23.00
2018-08-31T15:04:16.654Z,22.90
2018-08-31T15:06:46.328Z,22.90
2018-08-31T15:09:16.009Z,22.80
2018-08-31T15:11:47.653Z,22.50
2018-08-31T15:14:17.043Z,22.50
2018-08-31T15:16:46.959Z,22.30
2018-08-31T15:19:16.199Z,22.20
2018-08-31T15:21:45.304Z,22.00
2018-08-31T15:24:14.849Z,22.00
2018-08-31T15:26:46.981Z,22.00
2018-08-31T15:29:16.932Z,22.20
2018-08-31T15:31:54.861Z,21.90
2018-08-31T15:34:32.940Z,22.00
2018-08-31T15:37:09.708Z,21.90
2018-08-31T15:39:45.875Z,22.00
2018-08-31T15:45:02.488Z,21.60
2018-08-31T15:47:40.892Z,21.50
2018-08-31T15:50:11.506Z,21.20
2018-08-31T15:52:45.288Z,21.00
2018-08-31T15:55:16.188Z,21.00
2018-08-31T15:57:46.604Z,21.00
2018-08-31T16:00:16.858Z,20.90
2018-08-31T16:02:48.745Z,20.90
2018-08-31T16:05:18.296Z,20.80
2018-08-31T16:07:48.569Z,20.80
2018-08-31T16:10:19.132Z,20.70
2018-08-31T16:12:50.114Z,20.60
2018-08-31T16:15:19.829Z,20.70
2018-08-31T16:17:48.912Z,20.80
2018-08-31T16:20:18.169Z,21.00
2018-08-31T16:22:47.137Z,21.10
2018-08-31T16:25:23.647Z,21.10
2018-08-31T16:27:52.789Z,21.20
2018-08-31T16:30:22.289Z,21.20
2018-08-31T16:32:51.386Z,21.20
2018-08-31T16:35:30.206Z,21.40
2018-08-31T16:38:06.343Z,21.60
2018-08-31T17:13:29.579Z,22.00
2018-08-31T17:16:01.948Z,20.50
2018-08-31T17:18:35.276Z,20.30
2018-08-31T17:21:04.784Z,20.20
2018-08-31T17:23:39.786Z,20.20
2018-08-31T17:26:13.603Z,20.10
2018-08-31T17:28:52.882Z,20.00
2018-08-31T17:31:27.499Z,19.90
2018-08-31T17:34:02.399Z,19.80
2018-08-31T17:36:37.371Z,19.80
2018-08-31T17:39:09.277Z,19.70
2018-08-31T17:46:39.834Z,19.70
2018-08-31T17:49:09.557Z,19.50
2018-08-31T17:51:42.748Z,19.50
2018-08-31T17:54:14.005Z,19.40
2018-08-31T17:56:48.565Z,19.40
2018-08-31T17:59:19.437Z,19.30
2018-08-31T18:01:48.678Z,19.30
2018-08-31T18:04:18.082Z,19.30
2018-08-31T18:06:48.164Z,19.20
2018-08-31T18:09:17.980Z,19.10
2018-08-31T18:11:47.658Z,19.10
2018-08-31T18:14:19.623Z,19.10
2018-08-31T18:16:50.066Z,19.10
2018-08-31T18:21:59.463Z,19.00
2018-08-31T18:24:29.430Z,19.00
2018-08-31T18:26:59.827Z,18.90
2018-08-31T18:29:33.518Z,18.90
2018-08-31T18:32:07.999Z,18.80
2018-08-31T18:34:40.687Z,18.80
2018-08-31T18:37:19.361Z,18.70
2018-08-31T18:39:51.249Z,18.80
2018-08-31T18:42:24.865Z,18.80
2018-08-31T18:45:02.753Z,18.80
2018-08-31T18:47:33.105Z,18.80
2018-08-31T18:50:10.071Z,18.70
2018-08-31T18:52:48.466Z,18.70
2018-08-31T18:55:29.292Z,18.70
2018-08-31T18:58:02.506Z,18.60
2018-08-31T19:00:38.882Z,18.50
2018-08-31T19:03:09.860Z,18.50
2018-08-31T19:05:41.163Z,18.50
2018-08-31T19:08:10.501Z,18.50
2018-08-31T19:10:41.040Z,18.50
2018-08-31T19:13:12.393Z,18.40
2018-08-31T19:15:42.594Z,18.40
2018-08-31T19:18:12.730Z,18.40
2018-08-31T19:20:45.571Z,18.40
2018-08-31T19:23:16.928Z,18.40
2018-08-31T19:25:45.994Z,18.40
2018-08-31T19:28:18.200Z,18.30
2018-08-31T19:30:47.360Z,18.30
2018-08-31T19:33:16.883Z,18.30
2018-08-31T19:35:47.852Z,18.20
2018-08-31T19:38:19.579Z,18.20
2018-08-31T19:40:49.815Z,18.20
2018-08-31T19:43:20.222Z,18.20
2018-08-31T19:45:49.649Z,18.10
2018-08-31T19:48:19.283Z,18.10
2018-08-31T19:50:53.421Z,18.10
2018-08-31T19:53:22.534Z,18.10
2018-08-31T19:55:52.329Z,18.10
2018-08-31T19:58:22.006Z,18.00
2018-08-31T20:00:51.785Z,18.00
2018-08-31T20:03:26.337Z,18.00
2018-08-31T20:05:55.538Z,18.10
2018-08-31T20:08:24.755Z,18.00
2018-08-31T20:11:02.154Z,17.90
2018-08-31T20:20:56.864Z,17.90
2018-08-31T20:23:27.608Z,17.70
2018-08-31T20:25:57.252Z,17.60
2018-08-31T20:28:26.577Z,17.60
2018-08-31T20:30:56.351Z,17.50
2018-08-31T20:33:25.983Z,17.50
2018-08-31T20:35:56.576Z,17.40
2018-08-31T20:38:25.887Z,17.30
2018-08-31T20:40:55.716Z,17.20
2018-08-31T20:43:25.186Z,17.10
2018-08-31T20:45:54.600Z,17.00
2018-08-31T20:48:23.751Z,17.00
2018-08-31T20:50:52.812Z,17.00
2018-08-31T20:53:22.112Z,17.10
2018-08-31T20:55:51.176Z,17.10
2018-08-31T20:58:20.664Z,17.20
2018-08-31T21:00:49.681Z,17.10
2018-08-31T21:03:21.505Z,17.10
2018-08-31T21:05:50.627Z,17.00
2018-08-31T21:08:19.572Z,17.00
2018-08-31T21:10:50.501Z,16.90
2018-08-31T21:13:19.777Z,16.90
2018-08-31T21:15:49.017Z,16.80
2018-08-31T21:18:19.592Z,16.70
2018-08-31T21:20:49.558Z,16.70
2018-08-31T21:23:18.480Z,16.70
2018-08-31T21:25:47.587Z,16.70
2018-08-31T21:28:17.199Z,16.70
2018-08-31T21:33:21.394Z,16.60
2018-08-31T21:35:50.687Z,16.50
2018-08-31T21:38:20.493Z,16.50
2018-08-31T21:40:50.412Z,16.60
2018-08-31T21:43:19.847Z,16.50
2018-08-31T21:45:49.276Z,16.50
2018-08-31T21:48:19.668Z,16.60
2018-08-31T21:50:49.812Z,16.60
2018-08-31T21:53:20.382Z,16.50
2018-08-31T21:55:49.368Z,16.50
2018-08-31T21:58:18.788Z,16.40
2018-08-31T22:00:48.759Z,16.40
2018-08-31T22:03:17.922Z,16.40
2018-08-31T22:05:48.016Z,16.50
2018-08-31T22:10:44.422Z,16.60
2018-08-31T22:13:13.837Z,16.60
2018-08-31T22:15:43.334Z,16.60
2018-08-31T22:18:12.419Z,16.50
2018-08-31T22:20:46.522Z,16.60
2018-08-31T22:23:16.433Z,16.60
2018-08-31T22:25:45.735Z,16.70
2018-08-31T22:28:14.933Z,16.70
2018-08-31T22:30:43.984Z,16.70
2018-08-31T22:33:13.897Z,16.70
2018-08-31T22:35:43.009Z,16.70
2018-08-31T22:38:12.149Z,16.70
2018-08-31T22:40:41.641Z,16.70
2018-08-31T22:43:10.675Z,16.60
2018-08-31T22:49:56.516Z,16.60
2018-08-31T22:52:27.011Z,16.50
2018-08-31T22:54:56.797Z,16.60
2018-08-31T22:57:25.938Z,16.50
2018-08-31T22:59:56.477Z,16.50
2018-08-31T23:02:25.725Z,16.50
2018-08-31T23:04:56.020Z,16.50
2018-08-31T23:07:30.563Z,16.50
2018-08-31T23:09:59.596Z,16.50
2018-08-31T23:12:28.760Z,16.40
2018-08-31T23:14:57.737Z,16.30
2018-08-31T23:17:28.422Z,16.40
2018-08-31T23:19:58.939Z,16.30
2018-08-31T23:22:29.746Z,16.40
2018-08-31T23:25:00.412Z,16.40
2018-08-31T23:27:30.673Z,16.30
2018-08-31T23:29:59.736Z,16.20
2018-08-31T23:32:30.259Z,16.30
2018-08-31T23:34:59.341Z,16.30
2018-08-31T23:37:28.410Z,16.20
2018-08-31T23:39:57.599Z,16.10
2018-08-31T23:42:26.686Z,16.10
2018-08-31T23:44:56.229Z,16.20
2018-08-31T23:50:32.887Z,16.20
2018-08-31T23:53:02.414Z,16.30
2018-08-31T23:55:36.613Z,16.30
2018-08-31T23:58:05.671Z,16.30
